sensor_id;sensor_type;location;lat;lon;timestamp;pressure;altitude;pressure_sealevel;temperature;humidity
60371;BME280;48550;40.588;49.684;2024-01-15T00:02:09;102365.06;;;0.12;77.54
60371;BME280;48550;40.588;49.684;2024-01-15T00:04:39;102375.28;;;0.34;77.32
60371;BME280;48550;40.588;49.684;2024-01-15T00:07:08;102363.00;;;0.51;78.63
60371;BME280;48550;40.588;49.684;2024-01-15T00:09:34;102366.50;;;0.47;76.43
60371;BME280;48550;40.588;49.684;2024-01-15T00:12:01;102365.72;;;0.36;75.39
60371;BME280;48550;40.588;49.684;2024-01-15T00:14:27;102359.78;;;0.23;74.71
60371;BME280;48550;40.588;49.684;2024-01-15T00:16:53;102357.06;;;0.39;77.25
60371;BME280;48550;40.588;49.684;2024-01-15T00:19:23;102359.69;;;0.34;75.54
60371;BME280;48550;40.588;49.684;2024-01-15T00:21:49;102351.91;;;0.32;74.83
60371;BME280;48550;40.588;49.684;2024-01-15T00:24:15;102351.97;;;0.26;74.72
60371;BME280;48550;40.588;49.684;2024-01-15T00:26:41;102338.88;;;0.39;75.72
60371;BME280;48550;40.588;49.684;2024-01-15T00:29:07;102343.25;;;0.33;74.87
60371;BME280;48550;40.588;49.684;2024-01-15T00:31:33;102322.53;;;0.24;74.48
60371;BME280;48550;40.588;49.684;2024-01-15T00:33:59;102331.97;;;0.34;74.82
60371;BME280;48550;40.588;49.684;2024-01-15T00:36:25;102333.78;;;0.25;75.98
60371;BME280;48550;40.588;49.684;2024-01-15T00:38:51;102336.31;;;0.34;76.49
60371;BME280;48550;40.588;49.684;2024-01-15T00:41:17;102334.63;;;0.27;75.09
60371;BME280;48550;40.588;49.684;2024-01-15T00:43:44;102337.16;;;0.36;74.97
60371;BME280;48550;40.588;49.684;2024-01-15T00:46:10;102331.91;;;0.39;75.35
60371;BME280;48550;40.588;49.684;2024-01-15T00:48:36;102334.44;;;0.50;74.99
60371;BME280;48550;40.588;49.684;2024-01-15T00:51:03;102327.50;;;0.49;74.20
60371;BME280;48550;40.588;49.684;2024-01-15T00:53:29;102325.88;;;0.39;73.97
60371;BME280;48550;40.588;49.684;2024-01-15T00:55:55;102316.44;;;0.27;73.85
60371;BME280;48550;40.588;49.684;2024-01-15T00:58:21;102319.91;;;0.30;73.35
60371;BME280;48550;40.588;49.684;2024-01-15T01:00:46;102308.63;;;0.28;74.13
60371;BME280;48550;40.588;49.684;2024-01-15T01:03:12;102299.09;;;0.30;73.91
60371;BME280;48550;40.588;49.684;2024-01-15T01:05:38;102284.25;;;0.45;72.75
60371;BME280;48550;40.588;49.684;2024-01-15T01:08:04;102265.00;;;0.61;72.24
60371;BME280;48550;40.588;49.684;2024-01-15T01:10:29;102261.56;;;0.59;72.81
60371;BME280;48550;40.588;49.684;2024-01-15T01:12:55;102249.28;;;0.70;72.24
60371;BME280;48550;40.588;49.684;2024-01-15T01:15:21;102247.44;;;0.79;71.81
60371;BME280;48550;40.588;49.684;2024-01-15T01:17:47;102246.69;;;0.70;72.49
60371;BME280;48550;40.588;49.684;2024-01-15T01:20:13;102250.06;;;0.77;72.23
60371;BME280;48550;40.588;49.684;2024-01-15T01:22:40;102247.59;;;0.66;71.21
60371;BME280;48550;40.588;49.684;2024-01-15T01:25:07;102255.31;;;0.74;70.78
60371;BME280;48550;40.588;49.684;2024-01-15T01:27:33;102237.13;;;0.72;70.57
60371;BME280;48550;40.588;49.684;2024-01-15T01:29:59;102234.72;;;0.56;71.28
60371;BME280;48550;40.588;49.684;2024-01-15T01:32:24;102232.91;;;0.64;72.04
60371;BME280;48550;40.588;49.684;2024-01-15T01:34:50;102219.00;;;0.66;71.69
60371;BME280;48550;40.588;49.684;2024-01-15T01:37:16;102225.09;;;0.65;71.87
60371;BME280;48550;40.588;49.684;2024-01-15T01:39:42;102218.25;;;0.58;71.85
60371;BME280;48550;40.588;49.684;2024-01-15T01:42:08;102208.63;;;0.65;72.65
60371;BME280;48550;40.588;49.684;2024-01-15T01:44:34;102202.66;;;0.58;71.07
60371;BME280;48550;40.588;49.684;2024-01-15T01:47:00;102187.78;;;0.68;72.63
60371;BME280;48550;40.588;49.684;2024-01-15T01:49:27;102182.09;;;2.08;71.77
60371;BME280;48550;40.588;49.684;2024-01-15T01:51:56;102176.81;;;3.69;65.04
60371;BME280;48550;40.588;49.684;2024-01-15T01:54:22;102156.28;;;4.21;60.61
60371;BME280;48550;40.588;49.684;2024-01-15T01:56:50;102154.22;;;4.62;61.22
60371;BME280;48550;40.588;49.684;2024-01-15T01:59:16;102142.75;;;4.94;57.10
60371;BME280;48550;40.588;49.684;2024-01-15T02:01:44;102139.69;;;5.87;54.34
60371;BME280;48550;40.588;49.684;2024-01-15T02:04:11;102138.81;;;4.81;57.32
60371;BME280;48550;40.588;49.684;2024-01-15T02:06:37;102142.25;;;3.92;58.27
60371;BME280;48550;40.588;49.684;2024-01-15T02:09:03;102139.59;;;4.54;56.66
60371;BME280;48550;40.588;49.684;2024-01-15T02:11:31;102142.81;;;4.34;59.77
60371;BME280;48550;40.588;49.684;2024-01-15T02:13:57;102138.59;;;3.66;58.75
60371;BME280;48550;40.588;49.684;2024-01-15T02:16:23;102146.75;;;2.80;61.79
60371;BME280;48550;40.588;49.684;2024-01-15T02:18:48;102153.50;;;2.05;64.07
60371;BME280;48550;40.588;49.684;2024-01-15T02:21:14;102147.63;;;1.47;66.15
60371;BME280;48550;40.588;49.684;2024-01-15T02:23:40;102156.00;;;1.08;66.20
60371;BME280;48550;40.588;49.684;2024-01-15T02:26:06;102148.78;;;0.69;68.25
60371;BME280;48550;40.588;49.684;2024-01-15T02:28:33;102154.13;;;0.57;67.79
60371;BME280;48550;40.588;49.684;2024-01-15T02:30:59;102146.50;;;0.45;68.37
60371;BME280;48550;40.588;49.684;2024-01-15T02:33:25;102137.03;;;0.41;68.93
60371;BME280;48550;40.588;49.684;2024-01-15T02:35:51;102132.53;;;0.52;69.19
60371;BME280;48550;40.588;49.684;2024-01-15T02:38:16;102148.34;;;0.35;67.90
60371;BME280;48550;40.588;49.684;2024-01-15T02:40:43;102152.44;;;0.56;74.56
60371;BME280;48550;40.588;49.684;2024-01-15T02:43:09;102159.66;;;0.32;69.78
60371;BME280;48550;40.588;49.684;2024-01-15T02:45:35;102163.09;;;0.33;71.80
60371;BME280;48550;40.588;49.684;2024-01-15T02:48:01;102171.78;;;0.33;72.84
60371;BME280;48550;40.588;49.684;2024-01-15T02:50:26;102159.75;;;0.23;69.95
60371;BME280;48550;40.588;49.684;2024-01-15T02:52:52;102159.53;;;0.43;67.30
60371;BME280;48550;40.588;49.684;2024-01-15T02:55:18;102152.56;;;0.45;66.86
60371;BME280;48550;40.588;49.684;2024-01-15T02:57:44;102142.19;;;0.44;67.48
60371;BME280;48550;40.588;49.684;2024-01-15T03:00:10;102153.41;;;0.46;66.49
60371;BME280;48550;40.588;49.684;2024-01-15T03:02:37;102144.88;;;0.36;68.34
60371;BME280;48550;40.588;49.684;2024-01-15T03:05:11;102139.63;;;0.41;68.17
60371;BME280;48550;40.588;49.684;2024-01-15T03:07:37;102130.16;;;0.35;69.24
60371;BME280;48550;40.588;49.684;2024-01-15T03:10:05;102124.16;;;0.31;70.96
60371;BME280;48550;40.588;49.684;2024-01-15T03:12:31;102112.81;;;0.39;68.55
60371;BME280;48550;40.588;49.684;2024-01-15T03:14:57;102094.75;;;0.28;70.34
60371;BME280;48550;40.588;49.684;2024-01-15T03:17:22;102088.66;;;0.30;70.69
60371;BME280;48550;40.588;49.684;2024-01-15T03:19:48;102086.91;;;0.32;69.25
60371;BME280;48550;40.588;49.684;2024-01-15T03:22:15;102079.16;;;0.29;69.85
60371;BME280;48550;40.588;49.684;2024-01-15T03:24:41;102080.19;;;0.16;70.41
60371;BME280;48550;40.588;49.684;2024-01-15T03:27:07;102075.03;;;0.13;71.97
60371;BME280;48550;40.588;49.684;2024-01-15T03:29:33;102069.75;;;0.19;71.71
60371;BME280;48550;40.588;49.684;2024-01-15T03:31:58;102063.81;;;0.09;71.80
60371;BME280;48550;40.588;49.684;2024-01-15T03:34:24;102044.00;;;0.04;71.91
60371;BME280;48550;40.588;49.684;2024-01-15T03:36:50;102041.47;;;-0.04;72.22
60371;BME280;48550;40.588;49.684;2024-01-15T03:39:15;102029.31;;;-0.01;71.68
60371;BME280;48550;40.588;49.684;2024-01-15T03:41:41;102035.41;;;-0.02;73.76
60371;BME280;48550;40.588;49.684;2024-01-15T03:44:07;102031.03;;;0.01;72.89
60371;BME280;48550;40.588;49.684;2024-01-15T03:46:32;102043.00;;;0.11;71.88
60371;BME280;48550;40.588;49.684;2024-01-15T03:48:58;102051.66;;;0.13;72.82
60371;BME280;48550;40.588;49.684;2024-01-15T03:51:24;102054.31;;;0.10;71.55
60371;BME280;48550;40.588;49.684;2024-01-15T03:53:50;102043.97;;;0.05;71.55
60371;BME280;48550;40.588;49.684;2024-01-15T03:56:16;102054.91;;;0.29;70.44
60371;BME280;48550;40.588;49.684;2024-01-15T03:58:41;102061.09;;;0.20;71.42
60371;BME280;48550;40.588;49.684;2024-01-15T04:01:08;102060.28;;;0.16;71.30
60371;BME280;48550;40.588;49.684;2024-01-15T04:03:35;102063.75;;;0.14;69.60
60371;BME280;48550;40.588;49.684;2024-01-15T04:06:01;102063.66;;;0.22;70.09
60371;BME280;48550;40.588;49.684;2024-01-15T04:08:26;102076.69;;;0.17;70.77
60371;BME280;48550;40.588;49.684;2024-01-15T04:10:52;102081.84;;;0.20;70.45
60371;BME280;48550;40.588;49.684;2024-01-15T04:13:18;102078.53;;;0.10;69.73
60371;BME280;48550;40.588;49.684;2024-01-15T04:15:43;102081.06;;;0.16;70.03
60371;BME280;48550;40.588;49.684;2024-01-15T04:18:09;102070.81;;;0.68;68.37
60371;BME280;48550;40.588;49.684;2024-01-15T04:20:35;102083.47;;;2.33;63.45
60371;BME280;48550;40.588;49.684;2024-01-15T04:23:00;102074.94;;;3.69;59.05
60371;BME280;48550;40.588;49.684;2024-01-15T04:25:26;102067.38;;;4.50;56.29
60371;BME280;48550;40.588;49.684;2024-01-15T04:27:52;102074.03;;;5.16;54.40
60371;BME280;48550;40.588;49.684;2024-01-15T04:30:18;102084.53;;;5.90;51.90
60371;BME280;48550;40.588;49.684;2024-01-15T04:32:43;102066.16;;;6.39;51.16
60371;BME280;48550;40.588;49.684;2024-01-15T04:35:09;102080.19;;;7.04;49.37
60371;BME280;48550;40.588;49.684;2024-01-15T04:37:35;102079.31;;;7.46;46.50
60371;BME280;48550;40.588;49.684;2024-01-15T04:40:02;102089.41;;;7.55;46.14
60371;BME280;48550;40.588;49.684;2024-01-15T04:42:29;102085.41;;;8.07;45.22
60371;BME280;48550;40.588;49.684;2024-01-15T04:44:54;102087.72;;;7.94;46.41
60371;BME280;48550;40.588;49.684;2024-01-15T04:47:20;102090.47;;;7.72;45.51
60371;BME280;48550;40.588;49.684;2024-01-15T04:49:46;102089.75;;;8.65;43.50
60371;BME280;48550;40.588;49.684;2024-01-15T04:52:13;102103.81;;;8.83;44.83
60371;BME280;48550;40.588;49.684;2024-01-15T04:54:38;102112.88;;;9.99;43.36
60371;BME280;48550;40.588;49.684;2024-01-15T04:57:04;102121.84;;;9.62;42.21
60371;BME280;48550;40.588;49.684;2024-01-15T04:59:30;102108.81;;;9.41;40.67
60371;BME280;48550;40.588;49.684;2024-01-15T05:01:56;102110.66;;;9.74;40.75
60371;BME280;48550;40.588;49.684;2024-01-15T05:04:24;102110.31;;;9.98;39.87
60371;BME280;48550;40.588;49.684;2024-01-15T05:06:50;102117.28;;;7.59;43.82
60371;BME280;48550;40.588;49.684;2024-01-15T05:09:16;102114.19;;;5.92;49.75
60371;BME280;48550;40.588;49.684;2024-01-15T05:11:43;102109.38;;;4.46;52.30
60371;BME280;48550;40.588;49.684;2024-01-15T05:14:09;102102.44;;;3.15;56.46
60371;BME280;48550;40.588;49.684;2024-01-15T05:16:38;102106.31;;;2.61;58.58
60371;BME280;48550;40.588;49.684;2024-01-15T05:19:03;102088.25;;;2.90;58.26
60371;BME280;48550;40.588;49.684;2024-01-15T05:21:29;102080.88;;;4.65;54.46
60371;BME280;48550;40.588;49.684;2024-01-15T05:23:55;102088.50;;;6.93;47.90
60371;BME280;48550;40.588;49.684;2024-01-15T05:26:21;102072.69;;;7.77;45.03
60371;BME280;48550;40.588;49.684;2024-01-15T05:28:46;102076.34;;;8.12;44.58
60371;BME280;48550;40.588;49.684;2024-01-15T05:31:12;102066.94;;;8.27;43.32
60371;BME280;48550;40.588;49.684;2024-01-15T05:33:38;102060.44;;;8.34;43.09
60371;BME280;48550;40.588;49.684;2024-01-15T05:36:04;102065.50;;;8.95;42.62
60371;BME280;48550;40.588;49.684;2024-01-15T05:38:30;102077.13;;;9.25;41.85
60371;BME280;48550;40.588;49.684;2024-01-15T05:40:55;102066.44;;;9.79;40.68
60371;BME280;48550;40.588;49.684;2024-01-15T05:43:21;102075.63;;;10.85;38.71
60371;BME280;48550;40.588;49.684;2024-01-15T05:45:47;102064.56;;;11.54;37.96
60371;BME280;48550;40.588;49.684;2024-01-15T05:48:13;102050.13;;;11.15;37.61
60371;BME280;48550;40.588;49.684;2024-01-15T05:50:38;102059.81;;;10.53;38.51
60371;BME280;48550;40.588;49.684;2024-01-15T05:53:04;102045.38;;;11.05;38.60
60371;BME280;48550;40.588;49.684;2024-01-15T05:55:30;102037.69;;;10.86;38.49
60371;BME280;48550;40.588;49.684;2024-01-15T05:57:56;102031.00;;;11.40;37.62
60371;BME280;48550;40.588;49.684;2024-01-15T06:00:21;102022.41;;;11.22;38.38
60371;BME280;48550;40.588;49.684;2024-01-15T06:02:47;102026.09;;;11.34;37.68
60371;BME280;48550;40.588;49.684;2024-01-15T06:05:13;102031.06;;;11.24;37.90
60371;BME280;48550;40.588;49.684;2024-01-15T06:07:39;102036.97;;;10.99;37.84
60371;BME280;48550;40.588;49.684;2024-01-15T06:10:05;102014.41;;;11.38;37.93
60371;BME280;48550;40.588;49.684;2024-01-15T06:12:31;102015.78;;;11.43;37.18
60371;BME280;48550;40.588;49.684;2024-01-15T06:14:57;102002.56;;;11.58;38.09
60371;BME280;48550;40.588;49.684;2024-01-15T06:17:23;102018.16;;;11.77;36.62
60371;BME280;48550;40.588;49.684;2024-01-15T06:19:49;102018.06;;;11.78;37.56
60371;BME280;48550;40.588;49.684;2024-01-15T06:22:15;102017.88;;;11.67;36.51
60371;BME280;48550;40.588;49.684;2024-01-15T06:24:41;102019.94;;;11.19;38.26
60371;BME280;48550;40.588;49.684;2024-01-15T06:27:06;102011.47;;;10.20;39.23
60371;BME280;48550;40.588;49.684;2024-01-15T06:29:32;101991.25;;;10.04;39.29
60371;BME280;48550;40.588;49.684;2024-01-15T06:31:58;102003.16;;;10.43;39.25
60371;BME280;48550;40.588;49.684;2024-01-15T06:34:23;102009.09;;;11.81;39.83
60371;BME280;48550;40.588;49.684;2024-01-15T06:36:49;101988.78;;;12.38;36.70
60371;BME280;48550;40.588;49.684;2024-01-15T06:39:15;102002.22;;;12.34;36.25
60371;BME280;48550;40.588;49.684;2024-01-15T06:41:41;101987.56;;;12.56;36.37
60371;BME280;48550;40.588;49.684;2024-01-15T06:44:12;101973.78;;;12.24;37.08
60371;BME280;48550;40.588;49.684;2024-01-15T06:46:44;101966.72;;;12.10;37.11
60371;BME280;48550;40.588;49.684;2024-01-15T06:49:11;101951.13;;;11.49;37.41
60371;BME280;48550;40.588;49.684;2024-01-15T06:51:37;101957.84;;;12.11;37.60
60371;BME280;48550;40.588;49.684;2024-01-15T06:54:03;101938.19;;;11.30;38.59
60371;BME280;48550;40.588;49.684;2024-01-15T06:56:28;101942.69;;;8.57;44.24
60371;BME280;48550;40.588;49.684;2024-01-15T06:58:54;101944.38;;;6.65;49.27
60371;BME280;48550;40.588;49.684;2024-01-15T07:01:20;101946.28;;;5.49;54.67
60371;BME280;48550;40.588;49.684;2024-01-15T07:03:46;101943.00;;;4.94;54.17
60371;BME280;48550;40.588;49.684;2024-01-15T07:06:12;101933.78;;;4.57;54.74
60371;BME280;48550;40.588;49.684;2024-01-15T07:08:39;101937.75;;;4.42;54.29
60371;BME280;48550;40.588;49.684;2024-01-15T07:11:05;101917.63;;;4.17;58.19
60371;BME280;48550;40.588;49.684;2024-01-15T07:13:31;101915.13;;;4.14;57.17
60371;BME280;48550;40.588;49.684;2024-01-15T07:15:57;101915.63;;;4.25;59.00
60371;BME280;48550;40.588;49.684;2024-01-15T07:18:23;101929.34;;;4.32;59.05
60371;BME280;48550;40.588;49.684;2024-01-15T07:20:49;101922.97;;;4.14;58.86
60371;BME280;48550;40.588;49.684;2024-01-15T07:23:15;101912.78;;;4.05;55.96
60371;BME280;48550;40.588;49.684;2024-01-15T07:25:40;101913.59;;;4.07;55.91
60371;BME280;48550;40.588;49.684;2024-01-15T07:28:06;101894.97;;;3.89;56.91
60371;BME280;48550;40.588;49.684;2024-01-15T07:30:32;101894.97;;;3.89;57.10
60371;BME280;48550;40.588;49.684;2024-01-15T07:32:57;101899.81;;;4.02;59.33
60371;BME280;48550;40.588;49.684;2024-01-15T07:35:23;101896.59;;;3.93;57.14
60371;BME280;48550;40.588;49.684;2024-01-15T07:37:49;101882.59;;;3.94;57.19
60371;BME280;48550;40.588;49.684;2024-01-15T07:40:15;101870.69;;;3.86;57.65
60371;BME280;48550;40.588;49.684;2024-01-15T07:42:41;101863.25;;;3.73;58.06
60371;BME280;48550;40.588;49.684;2024-01-15T07:45:08;101873.63;;;3.75;59.55
60371;BME280;48550;40.588;49.684;2024-01-15T07:47:34;101841.13;;;3.85;59.51
60371;BME280;48550;40.588;49.684;2024-01-15T07:50:00;101845.78;;;3.74;58.83
60371;BME280;48550;40.588;49.684;2024-01-15T07:52:26;101833.66;;;3.73;60.54
60371;BME280;48550;40.588;49.684;2024-01-15T07:54:52;101820.22;;;3.57;58.73
60371;BME280;48550;40.588;49.684;2024-01-15T07:57:18;101809.97;;;3.51;59.24
60371;BME280;48550;40.588;49.684;2024-01-15T07:59:43;101813.59;;;3.45;59.46
60371;BME280;48550;40.588;49.684;2024-01-15T08:02:09;101802.59;;;3.35;60.49
60371;BME280;48550;40.588;49.684;2024-01-15T08:04:37;101790.69;;;3.26;60.23
60371;BME280;48550;40.588;49.684;2024-01-15T08:07:04;101786.16;;;3.32;59.16
60371;BME280;48550;40.588;49.684;2024-01-15T08:09:31;101781.84;;;3.31;60.89
60371;BME280;48550;40.588;49.684;2024-01-15T08:11:56;101777.53;;;3.30;61.18
60371;BME280;48550;40.588;49.684;2024-01-15T08:14:22;101773.03;;;3.35;61.54
60371;BME280;48550;40.588;49.684;2024-01-15T08:16:48;101765.34;;;3.30;61.22
60371;BME280;48550;40.588;49.684;2024-01-15T08:19:14;101750.69;;;3.24;61.00
60371;BME280;48550;40.588;49.684;2024-01-15T08:21:39;101750.75;;;3.23;60.92
60371;BME280;48550;40.588;49.684;2024-01-15T08:24:06;101750.66;;;3.26;61.11
60371;BME280;48550;40.588;49.684;2024-01-15T08:26:31;101743.03;;;3.20;61.98
60371;BME280;48550;40.588;49.684;2024-01-15T08:29:00;101730.84;;;3.20;63.50
60371;BME280;48550;40.588;49.684;2024-01-15T08:31:26;101725.75;;;3.16;61.25
60371;BME280;48550;40.588;49.684;2024-01-15T08:33:52;101724.78;;;3.20;60.92
60371;BME280;48550;40.588;49.684;2024-01-15T08:36:18;101710.19;;;3.13;61.95
60371;BME280;48550;40.588;49.684;2024-01-15T08:38:44;101702.19;;;3.19;61.73
60371;BME280;48550;40.588;49.684;2024-01-15T08:41:10;101676.97;;;3.18;60.52
60371;BME280;48550;40.588;49.684;2024-01-15T08:43:36;101670.72;;;3.23;60.11
60371;BME280;48550;40.588;49.684;2024-01-15T08:46:02;101679.09;;;3.33;59.66
60371;BME280;48550;40.588;49.684;2024-01-15T08:48:28;101666.66;;;3.41;61.19
60371;BME280;48550;40.588;49.684;2024-01-15T08:50:54;101659.66;;;3.42;61.11
60371;BME280;48550;40.588;49.684;2024-01-15T08:53:20;101662.13;;;3.47;62.69
60371;BME280;48550;40.588;49.684;2024-01-15T08:55:46;101661.56;;;3.37;60.90
60371;BME280;48550;40.588;49.684;2024-01-15T08:58:11;101651.31;;;3.31;61.98
60371;BME280;48550;40.588;49.684;2024-01-15T09:00:37;101641.91;;;3.26;62.20
60371;BME280;48550;40.588;49.684;2024-01-15T09:03:03;101635.88;;;3.24;62.59
60371;BME280;48550;40.588;49.684;2024-01-15T09:05:29;101607.28;;;3.21;63.39
60371;BME280;48550;40.588;49.684;2024-01-15T09:07:55;101614.72;;;3.59;61.25
60371;BME280;48550;40.588;49.684;2024-01-15T09:10:21;101602.44;;;3.86;58.28
60371;BME280;48550;40.588;49.684;2024-01-15T09:12:47;101593.22;;;4.01;59.69
60371;BME280;48550;40.588;49.684;2024-01-15T09:15:14;101579.75;;;4.12;59.40
60371;BME280;48550;40.588;49.684;2024-01-15T09:17:40;101585.63;;;4.18;59.74
60371;BME280;48550;40.588;49.684;2024-01-15T09:20:06;101583.06;;;4.17;60.90
60371;BME280;48550;40.588;49.684;2024-01-15T09:22:32;101557.75;;;4.17;60.06
60371;BME280;48550;40.588;49.684;2024-01-15T09:24:58;101550.53;;;4.24;61.19
60371;BME280;48550;40.588;49.684;2024-01-15T09:27:25;101549.09;;;4.17;61.04
60371;BME280;48550;40.588;49.684;2024-01-15T09:29:55;101539.06;;;4.28;61.07
60371;BME280;48550;40.588;49.684;2024-01-15T09:32:20;101535.69;;;4.25;61.79
60371;BME280;48550;40.588;49.684;2024-01-15T09:34:46;101544.63;;;4.19;61.82
60371;BME280;48550;40.588;49.684;2024-01-15T09:37:13;101536.59;;;4.02;61.83
60371;BME280;48550;40.588;49.684;2024-01-15T09:39:39;101560.38;;;3.94;63.65
60371;BME280;48550;40.588;49.684;2024-01-15T09:42:05;101561.69;;;3.82;63.42
60371;BME280;48550;40.588;49.684;2024-01-15T09:44:31;101556.53;;;3.80;62.43
60371;BME280;48550;40.588;49.684;2024-01-15T09:46:57;101563.44;;;3.81;62.29
60371;BME280;48550;40.588;49.684;2024-01-15T09:49:24;101563.84;;;3.71;61.68
60371;BME280;48550;40.588;49.684;2024-01-15T09:51:49;101558.88;;;3.63;61.36
60371;BME280;48550;40.588;49.684;2024-01-15T09:54:16;101537.69;;;3.47;61.17
60371;BME280;48550;40.588;49.684;2024-01-15T09:56:47;101522.44;;;3.35;62.49
60371;BME280;48550;40.588;49.684;2024-01-15T09:59:16;101552.25;;;3.27;64.72
60371;BME280;48550;40.588;49.684;2024-01-15T10:01:46;101559.28;;;3.25;66.52
60371;BME280;48550;40.588;49.684;2024-01-15T10:04:14;101552.25;;;3.27;63.15
60371;BME280;48550;40.588;49.684;2024-01-15T10:06:44;101544.38;;;3.29;63.77
60371;BME280;48550;40.588;49.684;2024-01-15T10:09:12;101527.75;;;3.32;63.26
60371;BME280;48550;40.588;49.684;2024-01-15T10:11:52;101526.09;;;3.29;63.05
60371;BME280;48550;40.588;49.684;2024-01-15T10:14:18;101531.09;;;3.35;66.53
60371;BME280;48550;40.588;49.684;2024-01-15T10:16:44;101527.66;;;3.35;66.19
60371;BME280;48550;40.588;49.684;2024-01-15T10:19:10;101529.13;;;3.42;65.73
60371;BME280;48550;40.588;49.684;2024-01-15T10:21:37;101520.19;;;3.49;63.74
60371;BME280;48550;40.588;49.684;2024-01-15T10:24:03;101541.97;;;3.48;67.64
60371;BME280;48550;40.588;49.684;2024-01-15T10:26:31;101549.81;;;3.48;67.18
60371;BME280;48550;40.588;49.684;2024-01-15T10:28:58;101548.06;;;3.49;65.49
60371;BME280;48550;40.588;49.684;2024-01-15T10:31:25;101565.56;;;3.45;67.55
60371;BME280;48550;40.588;49.684;2024-01-15T10:33:51;101565.56;;;3.45;67.65
60371;BME280;48550;40.588;49.684;2024-01-15T10:36:17;101574.50;;;3.39;67.61
60371;BME280;48550;40.588;49.684;2024-01-15T10:38:43;101566.22;;;3.26;67.38
60371;BME280;48550;40.588;49.684;2024-01-15T10:41:10;101579.22;;;3.28;66.16
60371;BME280;48550;40.588;49.684;2024-01-15T10:43:36;101571.53;;;3.23;66.06
60371;BME280;48550;40.588;49.684;2024-01-15T10:46:02;101569.13;;;3.17;67.54
60371;BME280;48550;40.588;49.684;2024-01-15T10:48:28;101564.59;;;3.22;66.74
60371;BME280;48550;40.588;49.684;2024-01-15T10:50:57;101589.31;;;3.39;66.75
60371;BME280;48550;40.588;49.684;2024-01-15T10:53:24;101595.66;;;3.57;67.54
60371;BME280;48550;40.588;49.684;2024-01-15T10:55:53;101590.13;;;3.66;65.67
60371;BME280;48550;40.588;49.684;2024-01-15T10:58:20;101596.38;;;3.60;64.41
60371;BME280;48550;40.588;49.684;2024-01-15T11:00:46;101596.34;;;3.62;65.40
60371;BME280;48550;40.588;49.684;2024-01-15T11:03:12;101604.22;;;3.60;64.50
60371;BME280;48550;40.588;49.684;2024-01-15T11:05:42;101606.09;;;3.57;65.59
60371;BME280;48550;40.588;49.684;2024-01-15T11:08:08;101606.94;;;3.57;64.86
60371;BME280;48550;40.588;49.684;2024-01-15T11:10:38;101602.78;;;3.52;65.25
60371;BME280;48550;40.588;49.684;2024-01-15T11:13:07;101599.59;;;3.69;67.62
60371;BME280;48550;40.588;49.684;2024-01-15T11:16:04;101603.81;;;3.73;64.38
60371;BME280;48550;40.588;49.684;2024-01-15T11:18:32;101614.72;;;3.59;64.26
60371;BME280;48550;40.588;49.684;2024-01-15T11:23:48;101617.19;;;3.37;66.71
60371;BME280;48550;40.588;49.684;2024-01-15T11:29:29;101628.00;;;3.26;67.40
60371;BME280;48550;40.588;49.684;2024-01-15T11:34:21;101633.97;;;3.30;67.63
60371;BME280;48550;40.588;49.684;2024-01-15T11:42:01;101650.53;;;3.55;67.56
60371;BME280;48550;40.588;49.684;2024-01-15T11:44:27;101650.44;;;3.58;69.02
60371;BME280;48550;40.588;49.684;2024-01-15T11:47:03;101654.25;;;3.48;67.44
60371;BME280;48550;40.588;49.684;2024-01-15T11:50:03;101656.22;;;3.41;67.29
60371;BME280;48550;40.588;49.684;2024-01-15T11:52:37;101668.41;;;3.41;68.04
60371;BME280;48550;40.588;49.684;2024-01-15T11:55:22;101687.78;;;3.34;66.39
60371;BME280;48550;40.588;49.684;2024-01-15T11:57:53;101688.28;;;3.18;66.90
60371;BME280;48550;40.588;49.684;2024-01-15T12:00:22;101677.47;;;3.02;67.96
60371;BME280;48550;40.588;49.684;2024-01-15T12:02:49;101684.91;;;2.86;68.03
60371;BME280;48550;40.588;49.684;2024-01-15T12:05:18;101693.66;;;2.84;69.37
60371;BME280;48550;40.588;49.684;2024-01-15T12:07:45;101696.31;;;2.82;70.16
60371;BME280;48550;40.588;49.684;2024-01-15T12:10:13;101694.72;;;2.77;70.15
60371;BME280;48550;40.588;49.684;2024-01-15T12:13:04;101706.00;;;2.79;71.56
60371;BME280;48550;40.588;49.684;2024-01-15T12:15:31;101713.25;;;2.69;70.19
60371;BME280;48550;40.588;49.684;2024-01-15T12:18:01;101712.50;;;2.64;71.13
60371;BME280;48550;40.588;49.684;2024-01-15T12:20:30;101726.44;;;2.63;71.12
60371;BME280;48550;40.588;49.684;2024-01-15T12:22:56;101727.22;;;2.66;70.80
60371;BME280;48550;40.588;49.684;2024-01-15T12:25:24;101736.09;;;2.59;70.92
60371;BME280;48550;40.588;49.684;2024-01-15T12:27:51;101744.84;;;2.58;71.95
60371;BME280;48550;40.588;49.684;2024-01-15T12:30:17;101750.63;;;2.68;73.10
60371;BME280;48550;40.588;49.684;2024-01-15T12:32:44;101751.47;;;2.68;71.63
60371;BME280;48550;40.588;49.684;2024-01-15T12:35:10;101755.84;;;2.68;71.69
60371;BME280;48550;40.588;49.684;2024-01-15T12:37:38;101752.53;;;2.63;70.77
60371;BME280;48550;40.588;49.684;2024-01-15T12:40:07;101767.34;;;2.61;70.15
60371;BME280;48550;40.588;49.684;2024-01-15T12:42:33;101762.06;;;2.62;71.99
60371;BME280;48550;40.588;49.684;2024-01-15T12:45:00;101763.03;;;2.60;72.53
60371;BME280;48550;40.588;49.684;2024-01-15T12:47:26;101769.13;;;2.59;73.36
60371;BME280;48550;40.588;49.684;2024-01-15T12:49:52;101781.44;;;2.53;72.27
60371;BME280;48550;40.588;49.684;2024-01-15T12:52:21;101794.50;;;2.53;72.31
60371;BME280;48550;40.588;49.684;2024-01-15T12:54:51;101784.19;;;2.49;73.53
60371;BME280;48550;40.588;49.684;2024-01-15T12:57:17;101796.56;;;2.72;74.91
60371;BME280;48550;40.588;49.684;2024-01-15T12:59:43;101790.44;;;2.75;74.96